Time;durP1;ratioP1;P1;durP2;ratioP2;P2;SDS_P1;SDS_P2;PMS_P1;PMS_P2;Temp;Humidity;BMP_temperature;BMP_pressure;BME280_temperature;BME280_humidity;BME280_pressure;Samples;Min_cycle;Max_cycle;Signal;HPM_P1;HPM_P2
2022/12/20 00:01:16;;;;;;;35.95;12.55;;;;;;;-4.14;89.03;101117.13;1632098;88;21531;-76
2022/12/20 00:03:43;;;;;;;30.40;10.13;;;;;;;-4.13;89.01;101115.09;1624479;88;21012;-76
2022/12/20 00:06:12;;;;;;;39.73;12.95;;;;;;;-4.09;88.85;101116.66;1631528;88;21075;-77
2022/12/20 00:08:39;;;;;;;35.70;12.37;;;;;;;-4.26;88.54;101120.64;1631983;88;21827;-76
2022/12/20 00:11:08;;;;;;;37.70;12.23;;;;;;;-4.31;88.65;101116.03;1638300;87;21127;-76
2022/12/20 00:13:35;;;;;;;36.38;12.88;;;;;;;-4.28;88.69;101112.00;1638957;87;21031;-76
2022/12/20 00:16:18;;;;;;;35.65;10.65;;;;;;;-4.40;88.43;101120.08;1638945;87;21532;-76
2022/12/20 00:18:44;;;;;;;32.48;11.75;;;;;;;-4.40;89.01;101113.37;1637629;86;21091;-76
2022/12/20 00:21:14;;;;;;;28.00;11.33;;;;;;;-4.35;89.07;101118.75;1637717;87;21110;-76
2022/12/20 00:23:41;;;;;;;29.27;10.72;;;;;;;-4.36;88.68;101116.09;1639026;87;21032;-76
2022/12/20 00:26:12;;;;;;;32.40;11.40;;;;;;;-4.37;88.55;101119.03;1638890;87;21099;-76
2022/12/20 00:28:40;;;;;;;33.78;11.45;;;;;;;-4.47;88.38;101118.80;1638757;87;21003;-76
2022/12/20 00:31:08;;;;;;;34.10;11.97;;;;;;;-4.44;88.50;101109.23;1637712;87;21071;-76
2022/12/20 00:33:36;;;;;;;36.68;11.80;;;;;;;-4.45;88.22;101107.09;1639041;87;21890;-76
2022/12/20 00:36:05;;;;;;;31.40;10.88;;;;;;;-4.53;88.01;101103.16;1638988;87;21004;-76
2022/12/20 00:38:32;;;;;;;31.27;10.72;;;;;;;-4.53;88.12;101108.23;1638983;87;21889;-76
2022/12/20 00:41:09;;;;;;;34.80;10.98;;;;;;;-4.54;88.02;101111.93;1638930;87;21016;-76
2022/12/20 00:43:38;;;;;;;27.00;9.70;;;;;;;-4.52;88.28;101109.10;1638977;87;21043;-75
2022/12/20 00:46:06;;;;;;;41.70;11.20;;;;;;;-4.46;88.14;101115.86;1638901;87;21575;-76
2022/12/20 00:48:33;;;;;;;32.83;12.10;;;;;;;-4.52;88.40;101110.38;1638943;87;21019;-76
2022/12/20 00:51:03;;;;;;;31.48;11.30;;;;;;;-4.53;88.25;101108.23;1638915;87;21189;-76
2022/12/20 00:53:31;;;;;;;46.55;14.45;;;;;;;-4.57;88.07;101110.08;1638529;87;21000;-76
2022/12/20 00:55:59;;;;;;;40.65;11.73;;;;;;;-4.54;88.39;101108.12;1638920;87;21162;-76
2022/12/20 00:58:26;;;;;;;32.67;11.70;;;;;;;-4.53;88.28;101103.55;1638620;87;21044;-76
2022/12/20 01:00:53;;;;;;;41.77;14.15;;;;;;;-4.54;88.41;101099.23;1638004;87;21083;-76
2022/12/20 01:03:20;;;;;;;47.35;15.00;;;;;;;-4.56;88.44;101098.25;1638117;87;21043;-76
2022/12/20 01:05:53;;;;;;;30.10;12.75;;;;;;;-4.69;88.43;101089.81;1638011;87;21111;-76
2022/12/20 01:08:21;;;;;;;39.38;13.83;;;;;;;-4.66;88.36;101099.28;1639141;87;21019;-75
2022/12/20 01:11:11;;;;;;;44.40;14.98;;;;;;;-4.77;88.46;101099.84;1652864;86;21551;-75
2022/12/20 01:13:42;;;;;;;53.68;16.40;;;;;;;-4.81;88.52;101097.87;1660677;86;21020;-76
2022/12/20 01:16:17;;;;;;;50.15;14.20;;;;;;;-4.79;89.38;101100.12;1659698;86;21044;-76
2022/12/20 01:18:44;;;;;;;40.20;14.80;;;;;;;-4.73;88.94;101090.38;1660025;85;21144;-76
2022/12/20 01:21:14;;;;;;;41.55;15.08;;;;;;;-4.78;89.33;101078.16;1658861;86;22177;-76
2022/12/20 01:23:41;;;;;;;44.20;13.38;;;;;;;-4.74;89.31;101075.91;1660903;86;20968;-76
2022/12/20 01:26:12;;;;;;;44.95;12.53;;;;;;;-4.73;88.61;101084.04;1656543;86;21016;-75
2022/12/20 01:28:42;;;;;;;23.67;9.90;;;;;;;-4.79;88.17;101086.16;1657064;86;20985;-76
2022/12/20 01:31:12;;;;;;;30.90;10.72;;;;;;;-4.85;87.93;101079.41;1651890;86;20968;-76
2022/12/20 01:33:39;;;;;;;36.25;10.98;;;;;;;-4.94;88.11;101078.36;1650053;86;20973;-76
2022/12/20 01:36:10;;;;;;;37.48;11.75;;;;;;;-4.94;88.12;101072.42;1652592;86;20964;-76
2022/12/20 01:38:37;;;;;;;37.90;12.55;;;;;;;-4.94;88.16;101073.29;1658616;86;20958;-76
2022/12/20 01:41:03;;;;;;;34.23;11.97;;;;;;;-4.92;88.28;101072.13;1656072;86;21215;-76
2022/12/20 01:43:52;;;;;;;38.08;14.30;;;;;;;-4.91;88.09;101068.84;1649732;86;21556;-76
2022/12/20 01:46:26;;;;;;;38.13;14.18;;;;;;;-4.98;87.93;101069.18;1655998;86;20972;-76
2022/12/20 01:49:18;;;;;;;42.40;13.85;;;;;;;-5.02;87.85;101068.08;1659762;86;20960;-76
2022/12/20 01:51:49;;;;;;;38.70;11.00;;;;;;;-5.11;87.85;101061.09;1657151;86;21573;-76
2022/12/20 01:54:21;;;;;;;36.55;11.65;;;;;;;-5.27;87.79;101056.61;1646493;86;21430;-78
2022/12/20 01:56:53;;;;;;;42.25;14.85;;;;;;;-5.32;88.48;101055.43;1656664;86;20976;-76
2022/12/20 01:59:19;;;;;;;34.40;13.90;;;;;;;-5.35;89.34;101059.01;1657869;86;21469;-76
2022/12/20 02:01:47;;;;;;;33.80;13.18;;;;;;;-5.35;89.34;101059.01;1657242;86;20930;-76
2022/12/20 02:04:13;;;;;;;33.63;11.67;;;;;;;-5.35;88.73;101054.84;1648419;86;20981;-75
2022/12/20 02:06:40;;;;;;;44.93;13.70;;;;;;;-5.38;88.84;101040.67;1659482;86;21827;-75
2022/12/20 02:09:07;;;;;;;44.35;13.68;;;;;;;-5.33;89.14;101049.85;1648254;86;21013;-75
2022/12/20 02:12:09;;;;;;;43.45;14.18;;;;;;;-5.36;89.14;101042.05;1658006;86;21028;-76
2022/12/20 02:14:56;;;;;;;58.42;19.40;;;;;;;-5.33;89.52;101046.05;1653893;86;20937;-76
2022/12/20 02:17:46;;;;;;;40.40;15.40;;;;;;;-5.30;89.20;101031.94;1660419;85;21100;-76
2022/12/20 02:20:30;;;;;;;44.77;16.00;;;;;;;-5.24;89.55;101036.16;1654969;86;21016;-76
2022/12/20 02:23:06;;;;;;;33.80;14.85;;;;;;;-5.21;89.34;101037.66;1657542;86;21041;-76
2022/12/20 02:25:59;;;;;;;41.42;17.15;;;;;;;-5.21;89.34;101037.66;1654163;86;21000;-76
2022/12/20 02:28:46;;;;;;;33.50;13.32;;;;;;;-5.12;89.17;101033.59;1655481;86;22088;-76
2022/12/20 02:31:17;;;;;;;32.80;13.20;;;;;;;-5.09;89.41;101023.67;1659343;86;21059;-75
2022/12/20 02:33:47;;;;;;;32.28;14.78;;;;;;;-5.08;89.05;101024.55;1656162;86;20976;-76
2022/12/20 02:36:18;;;;;;;36.15;14.33;;;;;;;-5.02;88.77;101041.45;1655678;86;21012;-76
2022/12/20 02:38:45;;;;;;;39.23;15.18;;;;;;;-5.11;88.65;101032.84;1638622;86;20984;-76
2022/12/20 02:41:32;;;;;;;34.67;13.25;;;;;;;-5.08;89.00;101035.56;1653045;86;21068;-76
2022/12/20 02:47:02;;;;;;;32.40;13.15;;;;;;;-5.11;88.88;101035.38;1658651;86;20993;-76
2022/12/20 02:49:32;;;;;;;45.08;14.60;;;;;;;-5.11;88.77;101034.47;1656715;86;21379;-76
2022/12/20 02:52:00;;;;;;;28.30;11.65;;;;;;;-5.18;89.25;101007.81;1655733;86;20977;-76
2022/12/20 02:54:28;;;;;;;37.95;11.60;;;;;;;-5.18;89.25;101007.81;1657471;86;21049;-77
2022/12/20 02:57:03;;;;;;;37.48;14.93;;;;;;;-5.09;88.61;101019.87;1657905;86;20985;-76
2022/12/20 02:59:37;;;;;;;34.92;11.45;;;;;;;-5.21;89.01;101019.91;1643440;86;20997;-76
2022/12/20 03:02:05;;;;;;;30.23;12.65;;;;;;;-5.23;89.14;101022.72;1646371;86;21269;-76
2022/12/20 03:04:36;;;;;;;45.25;13.32;;;;;;;-5.25;88.87;101020.47;1658581;86;21004;-76
2022/12/20 03:07:06;;;;;;;43.33;13.45;;;;;;;-5.27;89.04;101019.84;1651662;86;21238;-76
2022/12/20 03:09:37;;;;;;;39.10;13.58;;;;;;;-5.33;89.25;101015.63;1659574;86;21016;-76
2022/12/20 03:12:05;;;;;;;51.08;15.30;;;;;;;-5.31;89.49;101012.80;1632964;86;20997;-76
2022/12/20 03:14:34;;;;;;;40.55;15.08;;;;;;;-5.21;89.63;101022.44;1629606;87;21068;-76
2022/12/20 03:17:01;;;;;;;27.00;10.80;;;;;;;-5.10;89.83;101013.41;1630819;86;21043;-76
2022/12/20 03:19:28;;;;;;;29.72;11.30;;;;;;;-5.04;89.56;101018.51;1638196;87;21045;-76
2022/12/20 03:21:54;;;;;;;32.55;10.58;;;;;;;-4.95;89.36;101007.22;1630721;87;21035;-76
2022/12/20 03:24:21;;;;;;;31.87;11.85;;;;;;;-4.87;89.10;101009.52;1627933;87;21012;-76
2022/12/20 03:26:48;;;;;;;41.42;11.57;;;;;;;-4.79;89.08;100999.89;1637615;87;21080;-77
2022/12/20 03:29:16;;;;;;;21.55;10.28;;;;;;;-4.72;88.85;101002.44;1637606;87;20993;-76
2022/12/20 03:31:42;;;;;;;31.07;10.03;;;;;;;-4.67;88.44;100998.16;1634822;86;21068;-76
2022/12/20 03:34:10;;;;;;;32.10;10.45;;;;;;;-4.60;88.15;101001.61;1634759;87;21591;-75
2022/12/20 03:36:37;;;;;;;21.68;9.83;;;;;;;-4.53;87.96;100991.45;1635898;87;21036;-76
2022/12/20 03:39:04;;;;;;;28.30;10.20;;;;;;;-4.47;87.31;100987.17;1632678;87;21000;-76
2022/12/20 03:41:33;;;;;;;33.23;11.85;;;;;;;-4.43;87.33;100983.66;1637653;87;21024;-77
2022/12/20 03:43:59;;;;;;;40.00;13.40;;;;;;;-4.47;86.89;100981.70;1631298;87;21073;-76
2022/12/20 03:46:26;;;;;;;34.05;13.83;;;;;;;-4.53;86.73;100976.63;1637809;87;21041;-76
2022/12/20 03:48:53;;;;;;;32.33;13.22;;;;;;;-4.50;86.98;100979.34;1631209;87;21519;-76
2022/12/20 03:51:21;;;;;;;26.87;10.72;;;;;;;-4.47;86.90;100981.70;1613732;87;21004;-76
2022/12/20 03:53:47;;;;;;;31.57;10.88;;;;;;;-4.44;86.71;100981.01;1631861;87;21050;-76
2022/12/20 03:56:14;;;;;;;36.45;13.45;;;;;;;-4.41;86.78;100972.34;1631948;87;21568;-76
2022/12/20 03:58:41;;;;;;;46.28;14.68;;;;;;;-4.48;86.42;100967.23;1632828;87;21056;-76
2022/12/20 04:01:24;;;;;;;32.33;9.90;;;;;;;-4.47;86.44;100976.63;1633982;87;21035;-76
2022/12/20 04:03:51;;;;;;;27.43;9.90;;;;;;;-4.57;86.72;100969.59;1633120;87;21408;-76
2022/12/20 04:06:19;;;;;;;36.63;13.62;;;;;;;-4.65;86.73;100957.26;1635407;87;21171;-76
2022/12/20 04:08:46;;;;;;;29.30;11.45;;;;;;;-4.73;86.97;100952.47;1636081;87;21036;-76
2022/12/20 04:11:15;;;;;;;39.18;14.15;;;;;;;-4.66;87.26;100971.11;1636038;86;21032;-76
2022/12/20 04:13:46;;;;;;;31.40;11.22;;;;;;;-4.75;87.19;100973.06;1656748;86;21090;-76
2022/12/20 04:16:18;;;;;;;31.48;10.68;;;;;;;-4.76;87.45;100965.81;1654787;86;20985;-76
2022/12/20 04:18:45;;;;;;;27.37;12.28;;;;;;;-4.82;87.22;100963.75;1657918;85;21025;-76
2022/12/20 04:21:12;;;;;;;36.93;12.73;;;;;;;-4.89;87.67;100958.19;1649929;86;21505;-76
2022/12/20 04:23:42;;;;;;;41.37;12.35;;;;;;;-4.89;87.60;100958.19;1659385;86;20997;-76
2022/12/20 04:26:09;;;;;;;26.25;10.23;;;;;;;-4.94;88.05;100960.39;1659123;86;20946;-76
2022/12/20 04:28:36;;;;;;;31.57;10.55;;;;;;;-4.86;88.36;100960.91;1659121;86;21031;-76
2022/12/20 04:31:04;;;;;;;29.70;11.10;;;;;;;-4.85;88.03;100951.27;1653297;86;21317;-77
2022/12/20 04:33:33;;;;;;;32.40;10.78;;;;;;;-4.88;87.87;100957.39;1659911;86;21056;-76
2022/12/20 04:36:00;;;;;;;34.73;11.48;;;;;;;-4.89;88.00;100960.33;1652090;86;21020;-76
2022/12/20 04:38:28;;;;;;;28.85;12.00;;;;;;;-4.95;87.83;100953.95;1646067;86;21001;-76
2022/12/20 04:40:56;;;;;;;30.32;10.03;;;;;;;-4.97;87.95;100950.42;1651970;86;20975;-76
2022/12/20 04:43:24;;;;;;;31.52;12.03;;;;;;;-5.10;88.06;100934.80;1658984;86;21064;-76
2022/12/20 04:45:59;;;;;;;30.92;10.72;;;;;;;-5.10;88.06;100934.80;1651272;86;21059;-76
2022/12/20 04:48:26;;;;;;;32.25;12.18;;;;;;;-5.04;87.84;100937.73;1637417;86;21469;-76
2022/12/20 04:50:55;;;;;;;33.75;12.98;;;;;;;-5.11;88.00;100941.89;1637795;86;21024;-76
2022/12/20 04:56:08;;;;;;;27.60;10.98;;;;;;;-5.16;88.30;100945.40;1638170;86;20979;-77
2022/12/20 04:58:35;;;;;;;29.57;13.08;;;;;;;-5.11;88.43;100949.14;1653329;86;20965;-76
2022/12/20 05:01:03;;;;;;;29.72;10.93;;;;;;;-5.12;88.17;100938.48;1657245;86;21027;-76
2022/12/20 05:03:31;;;;;;;37.30;13.03;;;;;;;-5.19;88.43;100943.95;1651063;86;21456;-76
2022/12/20 05:05:58;;;;;;;28.47;10.98;;;;;;;-5.19;88.43;100943.95;1658436;86;21029;-76
2022/12/20 05:08:24;;;;;;;34.00;11.93;;;;;;;-5.08;88.58;100958.59;1652419;86;21034;-76
2022/12/20 05:10:52;;;;;;;33.45;13.35;;;;;;;-5.12;88.17;100954.09;1653933;86;21120;-76
2022/12/20 05:13:18;;;;;;;34.05;13.48;;;;;;;-5.16;88.23;100951.73;1624230;86;21071;-76
2022/12/20 05:15:52;;;;;;;33.08;13.20;;;;;;;-5.14;88.09;100953.98;1635221;87;21127;-76
2022/12/20 05:18:23;;;;;;;39.80;14.40;;;;;;;-5.12;88.16;100944.83;1626130;86;21271;-76
2022/12/20 05:26:34;;;;;;;26.20;11.18;;;;;;;-5.31;88.00;100945.63;1601729;87;21076;-76
2022/12/20 05:29:01;;;;;;;37.45;11.35;;;;;;;-5.32;88.12;100945.14;1638911;87;21043;-76
2022/12/20 05:31:28;;;;;;;28.55;10.58;;;;;;;-5.33;88.13;100936.67;1638860;87;21154;-76
2022/12/20 05:33:55;;;;;;;24.63;10.48;;;;;;;-5.28;88.33;100939.50;1637682;87;21060;-75
2022/12/20 05:36:22;;;;;;;25.92;10.82;;;;;;;-5.29;88.09;100941.17;1612828;87;21147;-75
2022/12/20 05:38:49;;;;;;;31.57;11.28;;;;;;;-5.24;88.13;100945.27;1636690;87;21075;-76
2022/12/20 05:41:17;;;;;;;29.50;12.40;;;;;;;-5.18;88.23;100935.55;1636816;87;21619;-77
2022/12/20 05:43:46;;;;;;;26.42;11.20;;;;;;;-5.16;87.99;100933.98;1637573;87;22020;-76
2022/12/20 05:46:13;;;;;;;36.93;12.20;;;;;;;-5.14;87.85;100934.97;1636810;87;21187;-76
2022/12/20 05:48:41;;;;;;;30.12;11.65;;;;;;;-5.18;87.65;100935.94;1635609;87;21086;-76
2022/12/20 05:51:08;;;;;;;33.48;11.83;;;;;;;-5.24;87.67;100924.59;1638315;87;21566;-76
2022/12/20 05:53:37;;;;;;;24.37;10.05;;;;;;;-5.24;87.67;100924.59;1635859;87;21022;-76
2022/12/20 05:56:05;;;;;;;23.30;8.68;;;;;;;-5.36;87.29;100944.05;1638308;87;21030;-76
2022/12/20 05:58:34;;;;;;;30.40;11.10;;;;;;;-5.36;87.29;100944.05;1637927;87;21138;-76
2022/12/20 06:01:06;;;;;;;28.05;10.90;;;;;;;-5.38;87.45;100941.80;1638232;87;21050;-76
2022/12/20 06:03:35;;;;;;;28.50;10.55;;;;;;;-5.47;87.58;100943.70;1638054;87;21577;-76
2022/12/20 06:06:04;;;;;;;26.95;11.50;;;;;;;-5.48;87.84;100940.69;1638105;87;21050;-76
2022/12/20 06:08:32;;;;;;;28.47;10.78;;;;;;;-5.50;87.98;100944.38;1639046;87;21046;-76
2022/12/20 06:11:03;;;;;;;35.25;12.10;;;;;;;-5.50;88.29;100934.63;1638730;87;21018;-75
2022/12/20 06:13:30;;;;;;;37.03;15.65;;;;;;;-5.50;88.29;100934.63;1636308;87;21122;-76
2022/12/20 06:15:59;;;;;;;29.25;10.63;;;;;;;-5.43;88.03;100941.86;1636385;87;20979;-76
2022/12/20 06:18:26;;;;;;;25.25;10.55;;;;;;;-5.44;87.71;100940.98;1636200;86;21047;-76
2022/12/20 06:20:55;;;;;;;40.28;12.98;;;;;;;-5.45;88.37;100926.94;1636235;88;21483;-76
2022/12/20 06:23:23;;;;;;;28.07;10.75;;;;;;;-5.42;88.24;100934.37;1636607;87;21590;-76
2022/12/20 06:25:57;;;;;;;47.40;13.78;;;;;;;-5.43;88.02;100927.55;1634971;87;21927;-76
2022/12/20 06:28:26;;;;;;;32.13;14.40;;;;;;;-5.37;88.01;100935.97;1636515;87;21042;-76
2022/12/20 06:30:55;;;;;;;27.27;12.07;;;;;;;-5.35;87.78;100932.24;1636656;88;21151;-76
2022/12/20 06:33:36;;;;;;;32.65;11.45;;;;;;;-5.32;87.72;100927.40;1635627;87;21082;-76
2022/12/20 06:36:04;;;;;;;28.80;10.50;;;;;;;-5.42;87.66;100928.03;1635740;88;21057;-76
2022/12/20 06:38:30;;;;;;;34.75;13.93;;;;;;;-5.37;88.02;100927.45;1635675;87;21142;-75
2022/12/20 06:40:57;;;;;;;32.23;14.13;;;;;;;-5.39;87.65;100932.45;1635775;88;21038;-76
2022/12/20 06:43:24;;;;;;;31.27;12.35;;;;;;;-5.39;87.65;100932.45;1635754;88;21066;-76
2022/12/20 06:45:50;;;;;;;33.50;12.20;;;;;;;-5.36;87.92;100923.77;1635768;88;21114;-76
2022/12/20 06:48:19;;;;;;;35.95;11.08;;;;;;;-5.32;88.37;100923.20;1635696;88;21061;-76
2022/12/20 06:50:48;;;;;;;29.55;10.98;;;;;;;-5.26;87.92;100933.75;1635866;87;21046;-76
2022/12/20 06:53:16;;;;;;;31.07;10.00;;;;;;;-5.25;87.74;100933.39;1635865;88;21066;-76
2022/12/20 06:55:43;;;;;;;26.12;11.03;;;;;;;-5.26;87.61;100931.61;1635780;88;21070;-76
2022/12/20 06:58:10;;;;;;;27.07;11.38;;;;;;;-5.29;87.52;100927.59;1615016;88;21089;-76
2022/12/20 07:00:37;;;;;;;37.10;10.88;;;;;;;-5.26;87.70;100930.34;1635567;88;21062;-75
2022/12/20 07:03:04;;;;;;;39.30;11.40;;;;;;;-5.25;87.54;100930.85;1635572;88;22049;-76
2022/12/20 07:05:30;;;;;;;30.72;10.68;;;;;;;-5.36;87.10;100920.36;1635613;87;21062;-76
2022/12/20 07:07:57;;;;;;;28.95;10.55;;;;;;;-5.44;86.81;100914.77;1622722;88;21020;-76
2022/12/20 07:10:23;;;;;;;27.77;11.22;;;;;;;-5.46;87.25;100920.12;1611082;89;21602;-76
2022/12/20 07:12:52;;;;;;;35.38;11.55;;;;;;;-5.49;87.11;100917.00;1618129;86;21068;-76
2022/12/20 07:15:18;;;;;;;26.97;11.38;;;;;;;-5.48;87.44;100936.48;1629432;88;21067;-76
2022/12/20 07:17:45;;;;;;;29.92;12.60;;;;;;;-5.61;87.09;100928.80;1628803;87;21119;-77
2022/12/20 07:20:12;;;;;;;30.35;11.78;;;;;;;-5.69;87.46;100931.20;1630973;88;21702;-76
2022/12/20 07:22:38;;;;;;;34.65;12.33;;;;;;;-5.60;87.98;100933.98;1627290;87;21036;-75
2022/12/20 07:25:06;;;;;;;31.80;12.98;;;;;;;-5.51;87.91;100932.85;1628299;88;21052;-76
2022/12/20 07:27:33;;;;;;;31.02;12.75;;;;;;;-5.53;87.48;100930.60;1630718;87;21036;-76
2022/12/20 07:29:59;;;;;;;31.95;12.63;;;;;;;-5.48;87.98;100935.61;1622609;87;21044;-76
2022/12/20 07:32:26;;;;;;;32.28;11.40;;;;;;;-5.46;87.98;100916.32;1625251;88;21061;-75
2022/12/20 07:34:52;;;;;;;41.40;17.23;;;;;;;-5.32;88.00;100925.73;1625216;87;21020;-76
2022/12/20 07:37:19;;;;;;;36.58;12.88;;;;;;;-5.25;87.38;100921.58;1626008;88;21051;-76
2022/12/20 07:39:45;;;;;;;41.35;15.20;;;;;;;-5.25;87.38;100921.58;1616382;87;21020;-76
2022/12/20 07:42:12;;;;;;;35.25;12.63;;;;;;;-5.29;86.92;100919.98;1627900;88;21379;-75
2022/12/20 07:44:42;;;;;;;30.95;11.88;;;;;;;-5.25;87.05;100908.03;1629198;87;21028;-75
2022/12/20 07:47:09;;;;;;;47.73;15.40;;;;;;;-5.25;87.05;100908.03;1630350;87;20981;-76
2022/12/20 07:49:36;;;;;;;66.77;17.73;;;;;;;-5.25;87.14;100901.69;1629329;87;21031;-75
2022/12/20 07:52:05;;;;;;;36.20;12.65;;;;;;;-5.14;86.90;100912.55;1620596;88;21043;-76
2022/12/20 07:54:37;;;;;;;40.90;15.15;;;;;;;-5.14;86.90;100912.55;1628513;87;21592;-75
2022/12/20 07:57:18;;;;;;;34.10;12.95;;;;;;;-5.20;87.02;100912.61;1623934;88;21055;-76
2022/12/20 07:59:49;;;;;;;44.42;15.80;;;;;;;-5.20;87.02;100912.61;1629983;87;21001;-76
2022/12/20 08:02:21;;;;;;;49.20;17.48;;;;;;;-5.09;87.08;100909.54;1623062;88;21040;-77
2022/12/20 08:04:49;;;;;;;48.42;17.27;;;;;;;-5.14;86.66;100888.05;1630659;87;20981;-76
2022/12/20 08:07:16;;;;;;;80.77;25.12;;;;;;;-5.14;86.66;100888.05;1625001;88;21041;-76
2022/12/20 08:09:44;;;;;;;57.98;17.05;;;;;;;-5.04;86.83;100892.95;1629828;88;21075;-76
2022/12/20 08:12:15;;;;;;;40.55;14.15;;;;;;;-5.04;86.68;100890.81;1621997;86;21052;-77
2022/12/20 08:14:43;;;;;;;32.45;12.53;;;;;;;-5.01;86.95;100887.22;1631075;88;21016;-76
2022/12/20 08:17:10;;;;;;;37.78;14.65;;;;;;;-4.86;87.24;100895.81;1624131;87;20981;-76
2022/12/20 08:19:38;;;;;;;37.67;14.30;;;;;;;-4.81;87.26;100893.20;1631339;88;21890;-76
2022/12/20 08:22:05;;;;;;;33.20;13.62;;;;;;;-4.72;87.17;100895.45;1622581;87;21538;-77
2022/12/20 08:24:33;;;;;;;30.65;11.93;;;;;;;-4.63;87.17;100893.92;1631492;87;21094;-76
2022/12/20 08:27:00;;;;;;;35.20;12.93;;;;;;;-4.62;86.40;100900.34;1622853;87;21119;-76
2022/12/20 08:29:26;;;;;;;31.20;12.73;;;;;;;-4.65;86.48;100895.08;1623443;88;21539;-76
2022/12/20 08:31:53;;;;;;;29.02;10.95;;;;;;;-4.65;86.32;100895.08;1624846;87;21967;-76
2022/12/20 08:34:20;;;;;;;39.63;13.78;;;;;;;-4.64;86.50;100894.28;1625031;88;21544;-76
2022/12/20 08:36:46;;;;;;;32.90;11.47;;;;;;;-4.70;86.56;100896.83;1627741;87;21094;-76
2022/12/20 08:39:13;;;;;;;41.73;14.35;;;;;;;-4.67;86.84;100901.72;1625185;88;21100;-76
2022/12/20 08:41:39;;;;;;;40.28;12.68;;;;;;;-4.57;87.19;100887.09;1629216;87;21580;-75
2022/12/20 08:44:06;;;;;;;34.70;12.53;;;;;;;-4.47;86.77;100890.70;1625658;88;21055;-76
2022/12/20 08:46:33;;;;;;;40.43;12.78;;;;;;;-4.46;86.80;100882.28;1629205;88;21071;-77
2022/12/20 08:48:59;;;;;;;28.32;10.32;;;;;;;-4.33;86.79;100889.04;1617638;87;21036;-75
2022/12/20 08:51:26;;;;;;;36.75;12.35;;;;;;;-4.24;86.92;100882.88;1612903;88;21060;-76
2022/12/20 08:53:52;;;;;;;36.10;12.10;;;;;;;-4.16;86.63;100883.73;1624164;87;21056;-77
2022/12/20 08:56:19;;;;;;;34.65;11.40;;;;;;;-4.20;86.36;100883.92;1633725;88;20935;-76
2022/12/20 08:58:46;;;;;;;35.90;11.83;;;;;;;-4.16;86.73;100878.66;1625367;87;21084;-76
2022/12/20 09:01:17;;;;;;;31.80;12.30;;;;;;;-4.04;86.76;100876.50;1630226;87;21551;-75
2022/12/20 09:03:45;;;;;;;32.65;11.15;;;;;;;-3.95;86.82;100871.09;1622507;87;21039;-76
2022/12/20 09:06:16;;;;;;;33.60;11.15;;;;;;;-3.88;86.28;100869.44;1626257;88;21067;-75
2022/12/20 09:08:43;;;;;;;40.20;12.63;;;;;;;-3.93;85.73;100851.74;1631645;87;21840;-76
2022/12/20 09:11:14;;;;;;;37.85;14.47;;;;;;;-3.98;85.65;100863.67;1629714;87;21068;-76
2022/12/20 09:13:44;;;;;;;46.25;13.15;;;;;;;-3.93;86.18;100851.74;1655034;86;21421;-76
2022/12/20 09:16:13;;;;;;;40.40;12.47;;;;;;;-3.80;86.00;100862.25;1656497;86;21024;-76
2022/12/20 09:18:40;;;;;;;37.00;11.35;;;;;;;-3.77;85.51;100855.22;1655997;86;21068;-76
2022/12/20 09:21:09;;;;;;;37.17;12.23;;;;;;;-3.76;85.41;100854.05;1650307;86;21036;-76
2022/12/20 09:23:37;;;;;;;43.98;12.70;;;;;;;-3.66;85.97;100856.36;1658471;86;21005;-76
2022/12/20 09:26:10;;;;;;;46.45;15.25;;;;;;;-3.63;85.73;100858.20;1650544;86;20980;-76
2022/12/20 09:28:37;;;;;;;29.18;11.45;;;;;;;-3.56;85.80;100854.34;1659813;86;20929;-75
2022/12/20 09:31:07;;;;;;;31.25;12.03;;;;;;;-3.52;84.89;100850.83;1651893;86;21432;-76
2022/12/20 09:33:34;;;;;;;36.83;12.35;;;;;;;-3.57;84.09;100848.80;1659774;86;21438;-76
2022/12/20 09:36:02;;;;;;;40.45;14.38;;;;;;;-3.57;84.16;100843.30;1652397;86;20980;-76
2022/12/20 09:38:31;;;;;;;51.50;15.32;;;;;;;-3.52;84.50;100846.11;1652475;86;21576;-76
2022/12/20 09:41:01;;;;;;;36.10;12.30;;;;;;;-3.49;84.38;100841.22;1655749;86;21459;-76
2022/12/20 09:43:27;;;;;;;43.20;15.05;;;;;;;-3.45;84.59;100840.21;1659149;86;20969;-76
2022/12/20 09:45:58;;;;;;;41.63;13.88;;;;;;;-3.40;83.90;100831.20;1655788;86;20993;-76
2022/12/20 09:48:39;;;;;;;38.85;12.25;;;;;;;-3.38;84.35;100826.22;1656021;86;21013;-76
2022/12/20 09:51:28;;;;;;;32.25;12.50;;;;;;;-3.33;84.44;100817.17;1656265;86;21000;-76
2022/12/20 09:54:15;;;;;;;26.15;10.93;;;;;;;-3.28;84.33;100814.91;1658760;86;21231;-76
2022/12/20 09:56:53;;;;;;;42.53;13.68;;;;;;;-3.26;83.52;100810.79;1644258;86;21583;-76
2022/12/20 09:59:20;;;;;;;38.83;12.85;;;;;;;-3.23;83.54;100800.78;1653202;86;21020;-76
2022/12/20 10:01:49;;;;;;;31.23;11.65;;;;;;;-3.15;84.26;100799.55;1651568;86;21024;-76
2022/12/20 10:04:28;;;;;;;37.83;12.30;;;;;;;-3.06;83.90;100794.99;1659627;86;20942;-76
2022/12/20 10:07:06;;;;;;;39.25;14.98;;;;;;;-3.03;83.35;100800.23;1651758;86;21035;-76
2022/12/20 10:10:04;;;;;;;37.03;11.95;;;;;;;-3.07;82.91;100794.49;1653400;86;21001;-76
2022/12/20 10:13:02;;;;;;;39.27;13.08;;;;;;;-3.02;82.74;100795.64;1652855;86;21089;-76
2022/12/20 10:15:36;;;;;;;37.33;11.35;;;;;;;-3.00;82.60;100788.97;1582168;89;21009;-76
2022/12/20 10:18:34;;;;;;;37.88;11.48;;;;;;;-2.99;82.87;100788.57;1653381;86;21131;-76
2022/12/20 10:21:12;;;;;;;35.75;12.28;;;;;;;-2.98;82.54;100783.98;1644461;86;20925;-75
2022/12/20 10:24:01;;;;;;;36.33;11.28;;;;;;;-2.90;81.87;100775.50;1652172;86;21017;-76
2022/12/20 10:26:29;;;;;;;36.17;13.10;;;;;;;-2.79;82.47;100770.59;1647481;86;21032;-76
2022/12/20 10:28:56;;;;;;;41.63;13.22;;;;;;;-2.77;81.66;100767.73;1651984;86;21024;-76
2022/12/20 10:31:24;;;;;;;38.98;14.53;;;;;;;-2.75;81.81;100764.00;1658864;86;22152;-76
2022/12/20 10:33:50;;;;;;;45.63;14.40;;;;;;;-2.80;81.53;100752.31;1652136;86;21036;-76
2022/12/20 10:36:28;;;;;;;31.97;12.28;;;;;;;-2.77;82.12;100751.59;1660088;86;20941;-76
2022/12/20 10:38:59;;;;;;;33.00;11.18;;;;;;;-2.73;82.63;100752.23;1652006;86;21505;-76
2022/12/20 10:41:29;;;;;;;53.52;15.75;;;;;;;-2.55;82.66;100735.81;1660829;86;20992;-76
2022/12/20 10:44:00;;;;;;;68.80;19.67;;;;;;;-2.35;82.79;100736.47;1653075;86;21036;-77
2022/12/20 10:46:53;;;;;;;57.05;17.65;;;;;;;-2.35;81.16;100733.92;1652903;86;20977;-76
2022/12/20 10:49:31;;;;;;;54.45;14.90;;;;;;;-2.25;80.84;100722.17;1655461;86;21044;-76
2022/12/20 10:52:11;;;;;;;36.58;12.98;;;;;;;-2.16;80.94;100706.88;1650613;86;21056;-76
2022/12/20 10:54:41;;;;;;;47.75;15.32;;;;;;;-2.14;81.36;100710.38;1656953;86;20985;-76
2022/12/20 10:57:27;;;;;;;35.35;12.07;;;;;;;-2.10;79.99;100717.39;1656350;86;21544;-76
2022/12/20 11:00:07;;;;;;;42.20;15.30;;;;;;;-2.10;80.75;100700.82;1637630;86;21024;-76
2022/12/20 11:02:40;;;;;;;35.80;14.38;;;;;;;-2.01;80.61;100700.90;1658128;86;20954;-76
2022/12/20 11:05:14;;;;;;;36.80;13.75;;;;;;;-1.90;79.90;100686.14;1655834;86;21001;-76
2022/12/20 11:08:01;;;;;;;38.90;13.75;;;;;;;-1.82;80.19;100681.42;1651848;86;20989;-77
2022/12/20 11:10:29;;;;;;;39.95;14.60;;;;;;;-1.70;80.56;100679.89;1651819;86;21409;-76
2022/12/20 11:13:02;;;;;;;31.52;12.47;;;;;;;-1.61;80.80;100675.25;1654683;86;21040;-76
2022/12/20 11:15:35;;;;;;;37.85;14.43;;;;;;;-1.59;79.64;100678.75;1633558;87;21023;-76
2022/12/20 11:18:43;;;;;;;28.92;10.20;;;;;;;-1.50;78.47;100671.53;1603850;87;21168;-76
2022/12/20 11:21:24;;;;;;;29.50;9.30;;;;;;;-1.45;79.12;100668.81;1631483;87;21079;-76
2022/12/20 11:24:26;;;;;;;31.57;11.28;;;;;;;-1.62;77.65;100665.84;1633339;87;21048;-76
2022/12/20 11:27:10;;;;;;;31.87;13.08;;;;;;;-1.64;78.00;100652.14;1630351;87;21032;-76
2022/12/20 11:29:48;;;;;;;25.60;11.35;;;;;;;-1.55;79.21;100636.02;1623767;87;21095;-76
2022/12/20 11:32:20;;;;;;;33.50;12.28;;;;;;;-1.40;80.17;100629.08;1627255;87;21071;-76
2022/12/20 11:35:15;;;;;;;28.90;10.55;;;;;;;-1.19;80.56;100627.08;1612232;87;21036;-76
2022/12/20 11:38:10;;;;;;;39.50;13.35;;;;;;;-1.09;80.08;100624.56;1628072;87;22329;-76